Hlavní strana
METAR-TAF:

METAR-TAF

Letiště :

Richard B. Russell Airport

Rome, Georgie, Spojené státy americké

zeměpisná šířka: 34-20-52N, zeměpisná délka: 085-09-40W, výška: 194 m

Aktuální stav počasí

Zpráva byla vytvořena před 57 minutami, v 10:53 UTC
Severní vítr 3 kt
Teplota 21°C
Vlhkost vzduchu 83%
Tlak 1021 hPa
Viditelnost: 11.3 km
Jasno

METAR: KRMG 241053Z AUTO 01003KT 7SM CLR 21/18 A3015 RMK AO2 SLP199 T02060183

Čas: 07:50 (11:50 UTC)


TAF: chybějící

Stav a předpovědi počasí z více než 4 000 letišť (zprávy METAR a TAF).

Červené a žluté tečky na mapě představují dostupné meteorologické stanice.

Když kurzor umístíte na tečku, zobrazí se název stanice.

Pak kliknutím zobrazíte stav a předpověď počasí.

Chcete-li změnit mapu, kliknutím na zelené tlačítko se znaménkem +mapu přiblížíte, kliknutím na zelené tlačítko se znaménkem – mapu oddálíte a kliknutím na zelené šipky přejdete na sousední mapy.


METAR-TAF: